sensor_id;sensor_type;location;lat;lon;timestamp;P1;durP1;ratioP1;P2;durP2;ratioP2
65202;SDS011;51788;45.124;38.966;2022-12-22T00:02:15;53.80;;;24.05;;
65202;SDS011;51788;45.124;38.966;2022-12-22T00:05:01;38.38;;;22.45;;
65202;SDS011;51788;45.124;38.966;2022-12-22T00:07:45;42.38;;;23.27;;
65202;SDS011;51788;45.124;38.966;2022-12-22T00:10:30;46.90;;;23.67;;
65202;SDS011;51788;45.124;38.966;2022-12-22T00:13:14;53.42;;;25.20;;
65202;SDS011;51788;45.124;38.966;2022-12-22T00:15:59;48.53;;;24.73;;
65202;SDS011;51788;45.124;38.966;2022-12-22T00:18:43;43.67;;;22.60;;
65202;SDS011;51788;45.124;38.966;2022-12-22T00:21:28;38.60;;;22.10;;
65202;SDS011;51788;45.124;38.966;2022-12-22T00:24:14;49.17;;;23.02;;
65202;SDS011;51788;45.124;38.966;2022-12-22T00:26:58;42.63;;;23.00;;
65202;SDS011;51788;45.124;38.966;2022-12-22T00:29:43;44.67;;;23.30;;
65202;SDS011;51788;45.124;38.966;2022-12-22T00:32:31;44.75;;;25.17;;
65202;SDS011;51788;45.124;38.966;2022-12-22T00:35:18;44.25;;;21.10;;
65202;SDS011;51788;45.124;38.966;2022-12-22T00:38:38;56.45;;;24.67;;
65202;SDS011;51788;45.124;38.966;2022-12-22T00:41:16;37.53;;;20.00;;
65202;SDS011;51788;45.124;38.966;2022-12-22T00:44:00;49.67;;;24.38;;
65202;SDS011;51788;45.124;38.966;2022-12-22T00:46:44;55.08;;;25.10;;
65202;SDS011;51788;45.124;38.966;2022-12-22T00:49:30;58.45;;;23.98;;
65202;SDS011;51788;45.124;38.966;2022-12-22T00:52:17;50.25;;;25.00;;
65202;SDS011;51788;45.124;38.966;2022-12-22T00:55:13;40.63;;;23.67;;
65202;SDS011;51788;45.124;38.966;2022-12-22T00:57:59;43.42;;;24.73;;
65202;SDS011;51788;45.124;38.966;2022-12-22T01:00:45;57.95;;;25.38;;
65202;SDS011;51788;45.124;38.966;2022-12-22T01:03:30;56.70;;;23.40;;
65202;SDS011;51788;45.124;38.966;2022-12-22T01:06:14;54.88;;;26.92;;
65202;SDS011;51788;45.124;38.966;2022-12-22T01:08:59;51.28;;;26.45;;
65202;SDS011;51788;45.124;38.966;2022-12-22T01:11:44;48.25;;;27.00;;
65202;SDS011;51788;45.124;38.966;2022-12-22T01:14:28;52.17;;;29.45;;
65202;SDS011;51788;45.124;38.966;2022-12-22T01:17:13;50.13;;;27.23;;
65202;SDS011;51788;45.124;38.966;2022-12-22T01:19:57;49.97;;;26.55;;
65202;SDS011;51788;45.124;38.966;2022-12-22T01:22:42;53.60;;;27.70;;
65202;SDS011;51788;45.124;38.966;2022-12-22T01:25:26;61.70;;;30.27;;
65202;SDS011;51788;45.124;38.966;2022-12-22T01:28:14;66.93;;;32.35;;
65202;SDS011;51788;45.124;38.966;2022-12-22T01:31:16;45.38;;;25.10;;
65202;SDS011;51788;45.124;38.966;2022-12-22T01:34:04;56.75;;;28.25;;
65202;SDS011;51788;45.124;38.966;2022-12-22T01:36:49;46.08;;;27.13;;
65202;SDS011;51788;45.124;38.966;2022-12-22T01:39:33;43.95;;;24.10;;
65202;SDS011;51788;45.124;38.966;2022-12-22T01:42:18;56.90;;;26.48;;
65202;SDS011;51788;45.124;38.966;2022-12-22T01:45:22;56.90;;;24.38;;
65202;SDS011;51788;45.124;38.966;2022-12-22T01:48:11;52.78;;;25.38;;
65202;SDS011;51788;45.124;38.966;2022-12-22T01:50:57;46.25;;;23.77;;
65202;SDS011;51788;45.124;38.966;2022-12-22T01:53:44;54.85;;;22.92;;
65202;SDS011;51788;45.124;38.966;2022-12-22T01:56:29;53.42;;;23.10;;
65202;SDS011;51788;45.124;38.966;2022-12-22T01:59:15;56.08;;;22.23;;
65202;SDS011;51788;45.124;38.966;2022-12-22T02:01:59;46.83;;;20.75;;
65202;SDS011;51788;45.124;38.966;2022-12-22T02:04:48;41.22;;;20.52;;
65202;SDS011;51788;45.124;38.966;2022-12-22T02:07:49;50.78;;;25.42;;
65202;SDS011;51788;45.124;38.966;2022-12-22T02:11:00;42.33;;;23.63;;
65202;SDS011;51788;45.124;38.966;2022-12-22T02:14:15;53.38;;;22.80;;
65202;SDS011;51788;45.124;38.966;2022-12-22T02:26:19;42.97;;;23.63;;
65202;SDS011;51788;45.124;38.966;2022-12-22T02:29:06;46.20;;;23.75;;
65202;SDS011;51788;45.124;38.966;2022-12-22T02:31:51;46.42;;;24.77;;
65202;SDS011;51788;45.124;38.966;2022-12-22T02:34:35;48.47;;;27.55;;
65202;SDS011;51788;45.124;38.966;2022-12-22T02:37:36;51.25;;;29.38;;
65202;SDS011;51788;45.124;38.966;2022-12-22T02:40:37;55.72;;;26.50;;
65202;SDS011;51788;45.124;38.966;2022-12-22T02:46:42;54.88;;;27.73;;
65202;SDS011;51788;45.124;38.966;2022-12-22T02:49:53;40.50;;;23.65;;
65202;SDS011;51788;45.124;38.966;2022-12-22T02:52:42;55.67;;;26.10;;
65202;SDS011;51788;45.124;38.966;2022-12-22T02:55:28;50.30;;;26.73;;
65202;SDS011;51788;45.124;38.966;2022-12-22T02:58:14;50.60;;;25.58;;
65202;SDS011;51788;45.124;38.966;2022-12-22T03:00:59;40.67;;;22.73;;
65202;SDS011;51788;45.124;38.966;2022-12-22T03:03:46;48.20;;;24.52;;
65202;SDS011;51788;45.124;38.966;2022-12-22T03:06:31;40.67;;;21.55;;
65202;SDS011;51788;45.124;38.966;2022-12-22T03:09:15;50.65;;;24.05;;
65202;SDS011;51788;45.124;38.966;2022-12-22T03:12:00;53.53;;;25.27;;
65202;SDS011;51788;45.124;38.966;2022-12-22T03:14:44;47.72;;;24.13;;
65202;SDS011;51788;45.124;38.966;2022-12-22T03:17:28;47.33;;;25.33;;
65202;SDS011;51788;45.124;38.966;2022-12-22T03:20:13;42.25;;;23.77;;
65202;SDS011;51788;45.124;38.966;2022-12-22T03:23:02;42.05;;;22.92;;
65202;SDS011;51788;45.124;38.966;2022-12-22T03:25:47;67.97;;;26.42;;
65202;SDS011;51788;45.124;38.966;2022-12-22T03:28:24;41.42;;;25.13;;
65202;SDS011;51788;45.124;38.966;2022-12-22T03:30:52;50.60;;;26.23;;
65202;SDS011;51788;45.124;38.966;2022-12-22T03:33:20;59.33;;;25.52;;
65202;SDS011;51788;45.124;38.966;2022-12-22T03:35:46;43.08;;;24.80;;
65202;SDS011;51788;45.124;38.966;2022-12-22T03:38:12;47.03;;;27.15;;
65202;SDS011;51788;45.124;38.966;2022-12-22T03:40:38;53.35;;;24.58;;
65202;SDS011;51788;45.124;38.966;2022-12-22T03:43:04;67.50;;;26.75;;
65202;SDS011;51788;45.124;38.966;2022-12-22T03:45:57;58.70;;;27.45;;
65202;SDS011;51788;45.124;38.966;2022-12-22T03:48:42;62.42;;;25.52;;
65202;SDS011;51788;45.124;38.966;2022-12-22T03:51:30;46.67;;;26.52;;
65202;SDS011;51788;45.124;38.966;2022-12-22T03:53:57;47.30;;;25.27;;
65202;SDS011;51788;45.124;38.966;2022-12-22T03:56:23;55.63;;;27.15;;
65202;SDS011;51788;45.124;38.966;2022-12-22T03:58:49;83.88;;;28.35;;
65202;SDS011;51788;45.124;38.966;2022-12-22T04:01:15;68.03;;;25.30;;
65202;SDS011;51788;45.124;38.966;2022-12-22T04:03:41;52.92;;;27.45;;
65202;SDS011;51788;45.124;38.966;2022-12-22T04:06:07;54.67;;;24.92;;
65202;SDS011;51788;45.124;38.966;2022-12-22T04:08:33;46.83;;;25.55;;
65202;SDS011;51788;45.124;38.966;2022-12-22T04:10:59;48.45;;;26.70;;
65202;SDS011;51788;45.124;38.966;2022-12-22T04:13:44;53.38;;;27.02;;
65202;SDS011;51788;45.124;38.966;2022-12-22T04:16:10;52.47;;;29.63;;
65202;SDS011;51788;45.124;38.966;2022-12-22T04:18:36;50.78;;;27.25;;
65202;SDS011;51788;45.124;38.966;2022-12-22T04:21:02;49.20;;;25.27;;
65202;SDS011;51788;45.124;38.966;2022-12-22T04:23:28;62.28;;;26.88;;
65202;SDS011;51788;45.124;38.966;2022-12-22T04:25:54;45.22;;;24.08;;
65202;SDS011;51788;45.124;38.966;2022-12-22T04:28:20;41.65;;;25.02;;
65202;SDS011;51788;45.124;38.966;2022-12-22T04:30:48;48.28;;;26.83;;
65202;SDS011;51788;45.124;38.966;2022-12-22T04:33:15;41.70;;;22.98;;
65202;SDS011;51788;45.124;38.966;2022-12-22T04:35:41;38.53;;;22.90;;
65202;SDS011;51788;45.124;38.966;2022-12-22T04:38:07;44.08;;;25.08;;
65202;SDS011;51788;45.124;38.966;2022-12-22T04:40:33;40.63;;;23.40;;
65202;SDS011;51788;45.124;38.966;2022-12-22T04:42:59;49.47;;;25.42;;
65202;SDS011;51788;45.124;38.966;2022-12-22T04:45:25;48.33;;;27.17;;
65202;SDS011;51788;45.124;38.966;2022-12-22T04:47:51;53.45;;;28.50;;
65202;SDS011;51788;45.124;38.966;2022-12-22T04:50:16;66.13;;;28.55;;
65202;SDS011;51788;45.124;38.966;2022-12-22T04:52:43;69.30;;;28.38;;
65202;SDS011;51788;45.124;38.966;2022-12-22T04:55:09;92.55;;;33.90;;
65202;SDS011;51788;45.124;38.966;2022-12-22T04:57:35;56.80;;;30.08;;
65202;SDS011;51788;45.124;38.966;2022-12-22T05:00:01;65.00;;;31.23;;
65202;SDS011;51788;45.124;38.966;2022-12-22T05:02:28;62.67;;;31.92;;
65202;SDS011;51788;45.124;38.966;2022-12-22T05:04:54;79.22;;;33.10;;
65202;SDS011;51788;45.124;38.966;2022-12-22T05:07:20;69.13;;;36.75;;
65202;SDS011;51788;45.124;38.966;2022-12-22T05:09:46;87.30;;;33.17;;
65202;SDS011;51788;45.124;38.966;2022-12-22T05:12:12;71.07;;;32.20;;
65202;SDS011;51788;45.124;38.966;2022-12-22T05:14:56;78.43;;;30.63;;
65202;SDS011;51788;45.124;38.966;2022-12-22T05:17:22;71.72;;;31.10;;
65202;SDS011;51788;45.124;38.966;2022-12-22T05:19:48;70.93;;;30.13;;
65202;SDS011;51788;45.124;38.966;2022-12-22T05:22:14;72.45;;;31.02;;
65202;SDS011;51788;45.124;38.966;2022-12-22T05:24:41;68.57;;;31.77;;
65202;SDS011;51788;45.124;38.966;2022-12-22T05:27:07;67.03;;;31.80;;
65202;SDS011;51788;45.124;38.966;2022-12-22T05:29:34;103.43;;;34.75;;
65202;SDS011;51788;45.124;38.966;2022-12-22T05:32:00;90.18;;;37.22;;
65202;SDS011;51788;45.124;38.966;2022-12-22T05:34:26;62.28;;;33.05;;
65202;SDS011;51788;45.124;38.966;2022-12-22T05:36:52;72.78;;;35.17;;
65202;SDS011;51788;45.124;38.966;2022-12-22T05:39:18;71.97;;;31.85;;
65202;SDS011;51788;45.124;38.966;2022-12-22T05:41:44;67.72;;;33.13;;
65202;SDS011;51788;45.124;38.966;2022-12-22T05:44:10;67.13;;;34.03;;
65202;SDS011;51788;45.124;38.966;2022-12-22T05:46:36;56.00;;;32.42;;
65202;SDS011;51788;45.124;38.966;2022-12-22T05:49:02;75.60;;;36.22;;
65202;SDS011;51788;45.124;38.966;2022-12-22T05:51:28;81.78;;;34.13;;
65202;SDS011;51788;45.124;38.966;2022-12-22T05:53:54;87.13;;;36.72;;
65202;SDS011;51788;45.124;38.966;2022-12-22T05:56:20;80.38;;;34.35;;
65202;SDS011;51788;45.124;38.966;2022-12-22T05:58:46;61.00;;;29.55;;
65202;SDS011;51788;45.124;38.966;2022-12-22T06:01:12;86.47;;;31.55;;
65202;SDS011;51788;45.124;38.966;2022-12-22T06:03:38;82.68;;;32.53;;
65202;SDS011;51788;45.124;38.966;2022-12-22T06:06:04;72.13;;;30.10;;
65202;SDS011;51788;45.124;38.966;2022-12-22T06:08:30;69.35;;;26.75;;
65202;SDS011;51788;45.124;38.966;2022-12-22T06:10:57;71.97;;;30.27;;
65202;SDS011;51788;45.124;38.966;2022-12-22T06:13:23;59.10;;;27.55;;
65202;SDS011;51788;45.124;38.966;2022-12-22T06:15:50;72.10;;;28.55;;
65202;SDS011;51788;45.124;38.966;2022-12-22T06:18:16;57.47;;;26.27;;
65202;SDS011;51788;45.124;38.966;2022-12-22T06:20:44;51.35;;;26.02;;
65202;SDS011;51788;45.124;38.966;2022-12-22T06:23:10;71.20;;;21.15;;
65202;SDS011;51788;45.124;38.966;2022-12-22T06:25:36;53.70;;;24.15;;
65202;SDS011;51788;45.124;38.966;2022-12-22T06:28:02;52.38;;;23.05;;
65202;SDS011;51788;45.124;38.966;2022-12-22T06:30:29;49.38;;;21.75;;
65202;SDS011;51788;45.124;38.966;2022-12-22T06:32:55;50.55;;;21.38;;
65202;SDS011;51788;45.124;38.966;2022-12-22T06:35:21;50.55;;;24.38;;
65202;SDS011;51788;45.124;38.966;2022-12-22T06:37:47;51.92;;;25.38;;
65202;SDS011;51788;45.124;38.966;2022-12-22T06:40:13;42.75;;;23.65;;
65202;SDS011;51788;45.124;38.966;2022-12-22T06:42:39;44.42;;;23.42;;
65202;SDS011;51788;45.124;38.966;2022-12-22T06:45:23;50.03;;;23.63;;
65202;SDS011;51788;45.124;38.966;2022-12-22T06:47:49;52.33;;;22.70;;
65202;SDS011;51788;45.124;38.966;2022-12-22T06:50:15;44.22;;;21.27;;
65202;SDS011;51788;45.124;38.966;2022-12-22T06:52:41;56.33;;;24.33;;
65202;SDS011;51788;45.124;38.966;2022-12-22T06:55:07;42.90;;;22.58;;
65202;SDS011;51788;45.124;38.966;2022-12-22T06:57:33;51.13;;;21.08;;
65202;SDS011;51788;45.124;38.966;2022-12-22T06:59:59;50.85;;;21.50;;
65202;SDS011;51788;45.124;38.966;2022-12-22T07:02:25;44.28;;;25.63;;
65202;SDS011;51788;45.124;38.966;2022-12-22T07:04:51;48.80;;;21.60;;
65202;SDS011;51788;45.124;38.966;2022-12-22T07:07:17;43.45;;;21.08;;
65202;SDS011;51788;45.124;38.966;2022-12-22T07:09:43;30.95;;;19.38;;
65202;SDS011;51788;45.124;38.966;2022-12-22T07:12:09;35.50;;;22.27;;
65202;SDS011;51788;45.124;38.966;2022-12-22T07:14:35;56.70;;;22.27;;
65202;SDS011;51788;45.124;38.966;2022-12-22T07:17:01;51.97;;;22.00;;
65202;SDS011;51788;45.124;38.966;2022-12-22T07:19:27;26.25;;;19.25;;
65202;SDS011;51788;45.124;38.966;2022-12-22T07:21:53;39.15;;;18.95;;
65202;SDS011;51788;45.124;38.966;2022-12-22T07:24:19;35.00;;;18.75;;
65202;SDS011;51788;45.124;38.966;2022-12-22T07:26:49;28.08;;;18.15;;
65202;SDS011;51788;45.124;38.966;2022-12-22T07:29:15;48.05;;;21.95;;
65202;SDS011;51788;45.124;38.966;2022-12-22T07:31:41;41.60;;;21.33;;
65202;SDS011;51788;45.124;38.966;2022-12-22T07:34:07;41.58;;;20.55;;
65202;SDS011;51788;45.124;38.966;2022-12-22T07:36:33;51.35;;;22.58;;
65202;SDS011;51788;45.124;38.966;2022-12-22T07:38:59;48.08;;;21.15;;
65202;SDS011;51788;45.124;38.966;2022-12-22T07:41:25;59.75;;;22.20;;
65202;SDS011;51788;45.124;38.966;2022-12-22T07:44:10;38.95;;;19.83;;
65202;SDS011;51788;45.124;38.966;2022-12-22T07:46:36;50.00;;;20.75;;
65202;SDS011;51788;45.124;38.966;2022-12-22T07:49:04;43.15;;;21.35;;
65202;SDS011;51788;45.124;38.966;2022-12-22T07:51:50;40.75;;;19.08;;
65202;SDS011;51788;45.124;38.966;2022-12-22T07:54:16;33.17;;;19.42;;
65202;SDS011;51788;45.124;38.966;2022-12-22T07:56:43;30.50;;;16.05;;
65202;SDS011;51788;45.124;38.966;2022-12-22T07:59:11;35.20;;;18.13;;
65202;SDS011;51788;45.124;38.966;2022-12-22T08:01:37;43.55;;;18.45;;
65202;SDS011;51788;45.124;38.966;2022-12-22T08:04:05;43.65;;;19.30;;
65202;SDS011;51788;45.124;38.966;2022-12-22T08:06:32;51.35;;;19.92;;
65202;SDS011;51788;45.124;38.966;2022-12-22T08:08:59;32.65;;;18.92;;
65202;SDS011;51788;45.124;38.966;2022-12-22T08:11:25;56.85;;;20.73;;
65202;SDS011;51788;45.124;38.966;2022-12-22T08:13:51;36.80;;;21.40;;
65202;SDS011;51788;45.124;38.966;2022-12-22T08:16:17;47.70;;;20.38;;
65202;SDS011;51788;45.124;38.966;2022-12-22T08:18:44;47.28;;;20.60;;
65202;SDS011;51788;45.124;38.966;2022-12-22T08:21:10;38.25;;;19.98;;
65202;SDS011;51788;45.124;38.966;2022-12-22T08:23:36;51.13;;;19.92;;
65202;SDS011;51788;45.124;38.966;2022-12-22T08:28:35;27.77;;;17.63;;
65202;SDS011;51788;45.124;38.966;2022-12-22T08:31:05;48.67;;;18.60;;
65202;SDS011;51788;45.124;38.966;2022-12-22T08:33:32;25.60;;;16.10;;
65202;SDS011;51788;45.124;38.966;2022-12-22T08:35:58;28.55;;;16.55;;
65202;SDS011;51788;45.124;38.966;2022-12-22T08:38:24;37.25;;;15.65;;
65202;SDS011;51788;45.124;38.966;2022-12-22T08:40:50;45.13;;;16.77;;
65202;SDS011;51788;45.124;38.966;2022-12-22T08:43:16;37.40;;;18.02;;
65202;SDS011;51788;45.124;38.966;2022-12-22T08:45:43;37.35;;;17.45;;
65202;SDS011;51788;45.124;38.966;2022-12-22T08:48:09;24.25;;;15.52;;
65202;SDS011;51788;45.124;38.966;2022-12-22T08:50:35;36.88;;;15.95;;
65202;SDS011;51788;45.124;38.966;2022-12-22T08:53:02;39.08;;;17.48;;
65202;SDS011;51788;45.124;38.966;2022-12-22T08:55:29;31.90;;;17.42;;
65202;SDS011;51788;45.124;38.966;2022-12-22T08:57:55;38.10;;;18.63;;
65202;SDS011;51788;45.124;38.966;2022-12-22T09:00:21;36.65;;;18.90;;
65202;SDS011;51788;45.124;38.966;2022-12-22T09:02:47;34.65;;;17.40;;
65202;SDS011;51788;45.124;38.966;2022-12-22T09:05:13;37.45;;;18.63;;
65202;SDS011;51788;45.124;38.966;2022-12-22T09:07:39;45.35;;;15.10;;
65202;SDS011;51788;45.124;38.966;2022-12-22T09:10:06;36.72;;;13.80;;
65202;SDS011;51788;45.124;38.966;2022-12-22T09:12:36;21.52;;;13.70;;
65202;SDS011;51788;45.124;38.966;2022-12-22T09:15:01;21.83;;;13.10;;
65202;SDS011;51788;45.124;38.966;2022-12-22T09:17:28;31.52;;;14.23;;
65202;SDS011;51788;45.124;38.966;2022-12-22T09:19:54;32.25;;;15.07;;
65202;SDS011;51788;45.124;38.966;2022-12-22T09:22:19;36.13;;;15.30;;
65202;SDS011;51788;45.124;38.966;2022-12-22T09:24:45;32.10;;;15.70;;
65202;SDS011;51788;45.124;38.966;2022-12-22T09:27:11;28.95;;;17.27;;
65202;SDS011;51788;45.124;38.966;2022-12-22T09:29:38;28.08;;;14.40;;
65202;SDS011;51788;45.124;38.966;2022-12-22T09:32:05;41.08;;;13.70;;
65202;SDS011;51788;45.124;38.966;2022-12-22T09:34:31;23.50;;;14.32;;
65202;SDS011;51788;45.124;38.966;2022-12-22T09:36:57;28.13;;;13.80;;
65202;SDS011;51788;45.124;38.966;2022-12-22T09:39:23;16.83;;;11.90;;
65202;SDS011;51788;45.124;38.966;2022-12-22T09:41:49;21.38;;;13.15;;
65202;SDS011;51788;45.124;38.966;2022-12-22T09:46:53;16.90;;;11.93;;
65202;SDS011;51788;45.124;38.966;2022-12-22T09:49:22;22.42;;;11.55;;
65202;SDS011;51788;45.124;38.966;2022-12-22T09:51:50;17.90;;;11.15;;
65202;SDS011;51788;45.124;38.966;2022-12-22T09:54:18;21.90;;;10.77;;
65202;SDS011;51788;45.124;38.966;2022-12-22T09:56:45;18.35;;;9.82;;
65202;SDS011;51788;45.124;38.966;2022-12-22T09:59:14;15.88;;;9.63;;
65202;SDS011;51788;45.124;38.966;2022-12-22T10:07:25;14.32;;;10.00;;
65202;SDS011;51788;45.124;38.966;2022-12-22T10:12:55;23.35;;;11.52;;
65202;SDS011;51788;45.124;38.966;2022-12-22T10:15:36;18.55;;;11.48;;
65202;SDS011;51788;45.124;38.966;2022-12-22T10:18:12;32.10;;;10.18;;
65202;SDS011;51788;45.124;38.966;2022-12-22T10:20:46;19.67;;;10.27;;
65202;SDS011;51788;45.124;38.966;2022-12-22T10:23:31;20.63;;;10.32;;
65202;SDS011;51788;45.124;38.966;2022-12-22T10:26:02;12.65;;;9.68;;
65202;SDS011;51788;45.124;38.966;2022-12-22T10:28:37;20.88;;;11.27;;
65202;SDS011;51788;45.124;38.966;2022-12-22T10:31:14;21.30;;;11.38;;
65202;SDS011;51788;45.124;38.966;2022-12-22T10:33:44;21.10;;;10.70;;
65202;SDS011;51788;45.124;38.966;2022-12-22T10:36:12;28.65;;;12.65;;
65202;SDS011;51788;45.124;38.966;2022-12-22T10:38:52;26.77;;;11.40;;
65202;SDS011;51788;45.124;38.966;2022-12-22T10:41:22;17.95;;;10.68;;
65202;SDS011;51788;45.124;38.966;2022-12-22T10:43:55;22.23;;;10.65;;
65202;SDS011;51788;45.124;38.966;2022-12-22T10:46:41;23.65;;;10.55;;
65202;SDS011;51788;45.124;38.966;2022-12-22T10:51:43;23.45;;;9.90;;
65202;SDS011;51788;45.124;38.966;2022-12-22T10:54:24;20.63;;;10.40;;
65202;SDS011;51788;45.124;38.966;2022-12-22T10:57:02;16.25;;;8.70;;
65202;SDS011;51788;45.124;38.966;2022-12-22T10:59:51;17.67;;;8.95;;
65202;SDS011;51788;45.124;38.966;2022-12-22T11:04:48;17.20;;;10.65;;
65202;SDS011;51788;45.124;38.966;2022-12-22T11:07:14;19.17;;;10.40;;
65202;SDS011;51788;45.124;38.966;2022-12-22T11:09:40;19.88;;;10.63;;
65202;SDS011;51788;45.124;38.966;2022-12-22T11:15:13;18.15;;;8.93;;
65202;SDS011;51788;45.124;38.966;2022-12-22T11:17:54;22.77;;;9.60;;
65202;SDS011;51788;45.124;38.966;2022-12-22T11:20:44;13.35;;;8.82;;
65202;SDS011;51788;45.124;38.966;2022-12-22T11:23:43;16.65;;;9.32;;
65202;SDS011;51788;45.124;38.966;2022-12-22T11:37:53;14.32;;;9.30;;
65202;SDS011;51788;45.124;38.966;2022-12-22T11:40:33;18.58;;;8.77;;
65202;SDS011;51788;45.124;38.966;2022-12-22T11:54:58;16.45;;;9.05;;
65202;SDS011;51788;45.124;38.966;2022-12-22T11:57:33;14.68;;;10.55;;
65202;SDS011;51788;45.124;38.966;2022-12-22T12:00:08;21.63;;;9.75;;
65202;SDS011;51788;45.124;38.966;2022-12-22T12:14:05;22.75;;;10.02;;
65202;SDS011;51788;45.124;38.966;2022-12-22T12:22:13;25.15;;;9.52;;
65202;SDS011;51788;45.124;38.966;2022-12-22T12:24:56;31.85;;;9.25;;
65202;SDS011;51788;45.124;38.966;2022-12-22T12:30:13;24.23;;;7.70;;
65202;SDS011;51788;45.124;38.966;2022-12-22T12:37:53;11.10;;;6.85;;
65202;SDS011;51788;45.124;38.966;2022-12-22T12:40:31;12.77;;;7.82;;
65202;SDS011;51788;45.124;38.966;2022-12-22T12:45:46;10.13;;;7.50;;
65202;SDS011;51788;45.124;38.966;2022-12-22T12:50:45;19.90;;;7.10;;
65202;SDS011;51788;45.124;38.966;2022-12-22T12:53:19;12.68;;;7.60;;
65202;SDS011;51788;45.124;38.966;2022-12-22T13:01:07;14.70;;;7.13;;
65202;SDS011;51788;45.124;38.966;2022-12-22T13:03:54;15.57;;;6.82;;
65202;SDS011;51788;45.124;38.966;2022-12-22T13:09:16;19.08;;;6.85;;
65202;SDS011;51788;45.124;38.966;2022-12-22T13:11:49;16.13;;;7.10;;
65202;SDS011;51788;45.124;38.966;2022-12-22T13:20:13;12.57;;;7.63;;
65202;SDS011;51788;45.124;38.966;2022-12-22T13:22:43;16.55;;;6.78;;
65202;SDS011;51788;45.124;38.966;2022-12-22T13:25:16;15.90;;;7.25;;
65202;SDS011;51788;45.124;38.966;2022-12-22T13:27:43;25.15;;;7.60;;
65202;SDS011;51788;45.124;38.966;2022-12-22T13:30:12;14.88;;;6.93;;
65202;SDS011;51788;45.124;38.966;2022-12-22T13:32:40;9.43;;;6.28;;
65202;SDS011;51788;45.124;38.966;2022-12-22T13:35:23;30.27;;;7.18;;
65202;SDS011;51788;45.124;38.966;2022-12-22T13:37:54;8.18;;;5.75;;
65202;SDS011;51788;45.124;38.966;2022-12-22T13:40:25;11.88;;;6.68;;
65202;SDS011;51788;45.124;38.966;2022-12-22T13:45:33;15.20;;;6.03;;
65202;SDS011;51788;45.124;38.966;2022-12-22T13:48:13;8.38;;;6.03;;
65202;SDS011;51788;45.124;38.966;2022-12-22T13:50:55;9.80;;;5.53;;
65202;SDS011;51788;45.124;38.966;2022-12-22T13:55:58;16.53;;;6.43;;
65202;SDS011;51788;45.124;38.966;2022-12-22T14:01:26;13.52;;;6.03;;
65202;SDS011;51788;45.124;38.966;2022-12-22T14:04:11;12.15;;;5.82;;
65202;SDS011;51788;45.124;38.966;2022-12-22T14:06:38;12.65;;;5.55;;
65202;SDS011;51788;45.124;38.966;2022-12-22T14:09:12;20.45;;;6.18;;
65202;SDS011;51788;45.124;38.966;2022-12-22T14:12:11;13.10;;;6.22;;
65202;SDS011;51788;45.124;38.966;2022-12-22T14:14:40;14.52;;;5.80;;
65202;SDS011;51788;45.124;38.966;2022-12-22T14:17:19;19.55;;;6.47;;
65202;SDS011;51788;45.124;38.966;2022-12-22T14:19:54;19.60;;;7.10;;
65202;SDS011;51788;45.124;38.966;2022-12-22T14:22:23;37.92;;;9.02;;
65202;SDS011;51788;45.124;38.966;2022-12-22T14:24:52;88.22;;;14.02;;
65202;SDS011;51788;45.124;38.966;2022-12-22T14:27:31;67.75;;;15.05;;
65202;SDS011;51788;45.124;38.966;2022-12-22T14:30:03;78.65;;;13.23;;
65202;SDS011;51788;45.124;38.966;2022-12-22T14:32:35;71.72;;;18.15;;
65202;SDS011;51788;45.124;38.966;2022-12-22T14:35:02;109.70;;;25.85;;
65202;SDS011;51788;45.124;38.966;2022-12-22T14:37:29;109.60;;;27.13;;
65202;SDS011;51788;45.124;38.966;2022-12-22T14:39:55;90.00;;;28.33;;
65202;SDS011;51788;45.124;38.966;2022-12-22T14:42:21;88.30;;;30.02;;
65202;SDS011;51788;45.124;38.966;2022-12-22T14:44:47;113.65;;;32.20;;
65202;SDS011;51788;45.124;38.966;2022-12-22T14:47:15;93.53;;;30.63;;
65202;SDS011;51788;45.124;38.966;2022-12-22T14:52:31;96.50;;;27.67;;
65202;SDS011;51788;45.124;38.966;2022-12-22T14:55:23;93.43;;;25.15;;
65202;SDS011;51788;45.124;38.966;2022-12-22T14:57:51;83.32;;;26.45;;
65202;SDS011;51788;45.124;38.966;2022-12-22T15:02:50;105.60;;;30.38;;
65202;SDS011;51788;45.124;38.966;2022-12-22T15:05:25;97.40;;;32.25;;
65202;SDS011;51788;45.124;38.966;2022-12-22T15:07:52;109.60;;;34.83;;
65202;SDS011;51788;45.124;38.966;2022-12-22T15:10:20;112.15;;;38.08;;
65202;SDS011;51788;45.124;38.966;2022-12-22T15:12:47;118.05;;;39.55;;
65202;SDS011;51788;45.124;38.966;2022-12-22T15:15:14;128.75;;;49.13;;
65202;SDS011;51788;45.124;38.966;2022-12-22T15:17:43;193.27;;;78.00;;
65202;SDS011;51788;45.124;38.966;2022-12-22T15:20:20;219.60;;;101.63;;
65202;SDS011;51788;45.124;38.966;2022-12-22T15:22:49;177.57;;;67.13;;
65202;SDS011;51788;45.124;38.966;2022-12-22T15:25:19;128.35;;;58.15;;
65202;SDS011;51788;45.124;38.966;2022-12-22T15:27:47;133.18;;;57.00;;
65202;SDS011;51788;45.124;38.966;2022-12-22T15:30:15;131.15;;;52.58;;
65202;SDS011;51788;45.124;38.966;2022-12-22T15:32:43;139.93;;;57.15;;
65202;SDS011;51788;45.124;38.966;2022-12-22T15:38:05;143.07;;;52.58;;
65202;SDS011;51788;45.124;38.966;2022-12-22T15:40:36;138.55;;;54.63;;
65202;SDS011;51788;45.124;38.966;2022-12-22T15:43:02;135.43;;;56.40;;
65202;SDS011;51788;45.124;38.966;2022-12-22T15:45:28;110.63;;;41.47;;
65202;SDS011;51788;45.124;38.966;2022-12-22T15:47:55;163.55;;;48.47;;
65202;SDS011;51788;45.124;38.966;2022-12-22T15:50:22;155.50;;;48.22;;
65202;SDS011;51788;45.124;38.966;2022-12-22T15:52:52;101.88;;;39.75;;
65202;SDS011;51788;45.124;38.966;2022-12-22T15:55:21;116.53;;;43.05;;
65202;SDS011;51788;45.124;38.966;2022-12-22T15:57:48;149.82;;;43.38;;
65202;SDS011;51788;45.124;38.966;2022-12-22T16:00:16;85.82;;;40.38;;
65202;SDS011;51788;45.124;38.966;2022-12-22T16:02:43;137.00;;;40.95;;
65202;SDS011;51788;45.124;38.966;2022-12-22T16:05:09;153.25;;;40.92;;
65202;SDS011;51788;45.124;38.966;2022-12-22T16:07:36;124.22;;;36.20;;
65202;SDS011;51788;45.124;38.966;2022-12-22T16:10:04;103.13;;;33.65;;
65202;SDS011;51788;45.124;38.966;2022-12-22T16:12:32;93.50;;;30.88;;
65202;SDS011;51788;45.124;38.966;2022-12-22T16:15:01;97.53;;;33.78;;
65202;SDS011;51788;45.124;38.966;2022-12-22T16:17:28;94.93;;;31.17;;
65202;SDS011;51788;45.124;38.966;2022-12-22T16:19:54;78.03;;;30.05;;
65202;SDS011;51788;45.124;38.966;2022-12-22T16:22:22;81.18;;;31.30;;
65202;SDS011;51788;45.124;38.966;2022-12-22T16:24:57;98.72;;;34.60;;
65202;SDS011;51788;45.124;38.966;2022-12-22T16:27:26;93.68;;;36.88;;
65202;SDS011;51788;45.124;38.966;2022-12-22T16:29:53;78.13;;;36.47;;
65202;SDS011;51788;45.124;38.966;2022-12-22T16:32:21;97.68;;;37.42;;
65202;SDS011;51788;45.124;38.966;2022-12-22T16:34:59;122.93;;;37.20;;
65202;SDS011;51788;45.124;38.966;2022-12-22T16:37:34;98.47;;;34.63;;
65202;SDS011;51788;45.124;38.966;2022-12-22T16:40:00;88.68;;;33.67;;
65202;SDS011;51788;45.124;38.966;2022-12-22T16:42:26;69.50;;;33.38;;